sensor_id;sensor_type;location;lat;lon;timestamp;P1;durP1;ratioP1;P2;durP2;ratioP2
43994;SDS011;51687;52.160;5.298;2022-07-17T00:00:19;2.90;;;1.20;;
43994;SDS011;51687;52.160;5.298;2022-07-17T00:02:46;3.03;;;0.95;;
43994;SDS011;51687;52.160;5.298;2022-07-17T00:05:18;4.32;;;1.17;;
43994;SDS011;51687;52.160;5.298;2022-07-17T00:07:45;3.13;;;1.10;;
43994;SDS011;51687;52.160;5.298;2022-07-17T00:10:14;1.33;;;0.80;;
43994;SDS011;51687;52.160;5.298;2022-07-17T00:12:42;2.20;;;0.80;;
43994;SDS011;51687;52.160;5.298;2022-07-17T00:15:10;3.10;;;0.75;;
43994;SDS011;51687;52.160;5.298;2022-07-17T00:17:39;2.17;;;1.00;;
43994;SDS011;51687;52.160;5.298;2022-07-17T00:20:06;2.08;;;0.75;;
43994;SDS011;51687;52.160;5.298;2022-07-17T00:22:34;1.85;;;0.85;;
43994;SDS011;51687;52.160;5.298;2022-07-17T00:25:02;2.40;;;0.93;;
43994;SDS011;51687;52.160;5.298;2022-07-17T00:27:31;2.83;;;1.10;;
43994;SDS011;51687;52.160;5.298;2022-07-17T00:29:58;1.75;;;0.77;;
43994;SDS011;51687;52.160;5.298;2022-07-17T00:32:24;1.00;;;0.80;;
43994;SDS011;51687;52.160;5.298;2022-07-17T00:34:51;2.28;;;1.00;;
43994;SDS011;51687;52.160;5.298;2022-07-17T00:37:18;1.88;;;1.00;;
43994;SDS011;51687;52.160;5.298;2022-07-17T00:39:47;2.13;;;1.00;;
43994;SDS011;51687;52.160;5.298;2022-07-17T00:42:15;6.10;;;1.10;;
43994;SDS011;51687;52.160;5.298;2022-07-17T00:44:43;1.95;;;1.10;;
43994;SDS011;51687;52.160;5.298;2022-07-17T00:47:14;2.83;;;0.80;;
43994;SDS011;51687;52.160;5.298;2022-07-17T00:49:46;2.53;;;1.20;;
43994;SDS011;51687;52.160;5.298;2022-07-17T00:52:14;2.60;;;0.90;;
43994;SDS011;51687;52.160;5.298;2022-07-17T00:54:42;2.95;;;1.08;;
43994;SDS011;51687;52.160;5.298;2022-07-17T00:57:12;1.60;;;0.80;;
43994;SDS011;51687;52.160;5.298;2022-07-17T00:59:41;0.93;;;0.73;;
43994;SDS011;51687;52.160;5.298;2022-07-17T01:02:10;2.83;;;1.03;;
43994;SDS011;51687;52.160;5.298;2022-07-17T01:04:40;2.60;;;1.10;;
43994;SDS011;51687;52.160;5.298;2022-07-17T01:07:07;3.35;;;1.00;;
43994;SDS011;51687;52.160;5.298;2022-07-17T01:09:34;1.55;;;0.90;;
43994;SDS011;51687;52.160;5.298;2022-07-17T01:12:02;2.78;;;0.95;;
43994;SDS011;51687;52.160;5.298;2022-07-17T01:14:31;4.13;;;1.23;;
43994;SDS011;51687;52.160;5.298;2022-07-17T01:17:00;1.73;;;1.10;;
43994;SDS011;51687;52.160;5.298;2022-07-17T01:19:27;2.80;;;0.90;;
43994;SDS011;51687;52.160;5.298;2022-07-17T01:21:55;3.40;;;1.10;;
43994;SDS011;51687;52.160;5.298;2022-07-17T01:24:22;2.33;;;0.80;;
43994;SDS011;51687;52.160;5.298;2022-07-17T01:26:49;2.90;;;0.90;;
43994;SDS011;51687;52.160;5.298;2022-07-17T01:29:16;3.00;;;1.08;;
43994;SDS011;51687;52.160;5.298;2022-07-17T01:31:43;2.05;;;0.90;;
43994;SDS011;51687;52.160;5.298;2022-07-17T01:34:11;3.05;;;1.00;;
43994;SDS011;51687;52.160;5.298;2022-07-17T01:36:42;2.03;;;0.90;;
43994;SDS011;51687;52.160;5.298;2022-07-17T01:39:09;2.55;;;0.93;;
43994;SDS011;51687;52.160;5.298;2022-07-17T01:41:35;2.10;;;0.82;;
43994;SDS011;51687;52.160;5.298;2022-07-17T01:44:03;6.45;;;0.80;;
43994;SDS011;51687;52.160;5.298;2022-07-17T01:46:30;2.28;;;0.80;;
43994;SDS011;51687;52.160;5.298;2022-07-17T01:48:58;3.22;;;1.08;;
43994;SDS011;51687;52.160;5.298;2022-07-17T01:51:27;1.10;;;0.85;;
43994;SDS011;51687;52.160;5.298;2022-07-17T01:53:56;3.22;;;1.20;;
43994;SDS011;51687;52.160;5.298;2022-07-17T01:56:23;1.60;;;1.00;;
43994;SDS011;51687;52.160;5.298;2022-07-17T01:58:50;2.60;;;0.90;;
43994;SDS011;51687;52.160;5.298;2022-07-17T02:01:17;2.58;;;0.95;;
43994;SDS011;51687;52.160;5.298;2022-07-17T02:03:44;0.60;;;0.52;;
43994;SDS011;51687;52.160;5.298;2022-07-17T02:06:10;1.73;;;0.70;;
43994;SDS011;51687;52.160;5.298;2022-07-17T02:08:37;1.73;;;0.75;;
43994;SDS011;51687;52.160;5.298;2022-07-17T02:11:05;1.67;;;0.73;;
43994;SDS011;51687;52.160;5.298;2022-07-17T02:13:31;2.58;;;0.77;;
43994;SDS011;51687;52.160;5.298;2022-07-17T02:15:58;1.25;;;0.88;;
43994;SDS011;51687;52.160;5.298;2022-07-17T02:18:25;1.88;;;0.80;;
43994;SDS011;51687;52.160;5.298;2022-07-17T02:20:52;2.20;;;0.90;;
43994;SDS011;51687;52.160;5.298;2022-07-17T02:23:19;2.65;;;0.80;;
43994;SDS011;51687;52.160;5.298;2022-07-17T02:25:46;2.33;;;1.02;;
43994;SDS011;51687;52.160;5.298;2022-07-17T02:28:13;1.80;;;0.77;;
43994;SDS011;51687;52.160;5.298;2022-07-17T02:30:39;2.13;;;1.00;;
43994;SDS011;51687;52.160;5.298;2022-07-17T02:33:06;1.63;;;0.70;;
43994;SDS011;51687;52.160;5.298;2022-07-17T02:35:33;1.27;;;0.80;;
43994;SDS011;51687;52.160;5.298;2022-07-17T02:38:00;1.58;;;0.90;;
43994;SDS011;51687;52.160;5.298;2022-07-17T02:40:27;2.17;;;0.80;;
43994;SDS011;51687;52.160;5.298;2022-07-17T02:42:54;3.22;;;0.90;;
43994;SDS011;51687;52.160;5.298;2022-07-17T02:45:22;2.67;;;1.08;;
43994;SDS011;51687;52.160;5.298;2022-07-17T02:47:51;4.03;;;1.13;;
43994;SDS011;51687;52.160;5.298;2022-07-17T02:50:20;2.17;;;0.98;;
43994;SDS011;51687;52.160;5.298;2022-07-17T02:52:47;3.08;;;1.17;;
43994;SDS011;51687;52.160;5.298;2022-07-17T02:55:16;1.50;;;0.85;;
43994;SDS011;51687;52.160;5.298;2022-07-17T02:57:43;1.85;;;0.93;;
43994;SDS011;51687;52.160;5.298;2022-07-17T03:00:14;1.60;;;0.88;;
43994;SDS011;51687;52.160;5.298;2022-07-17T03:02:44;2.17;;;0.90;;
43994;SDS011;51687;52.160;5.298;2022-07-17T03:05:12;2.50;;;0.80;;
43994;SDS011;51687;52.160;5.298;2022-07-17T03:07:41;1.60;;;1.00;;
43994;SDS011;51687;52.160;5.298;2022-07-17T03:10:09;2.92;;;1.05;;
43994;SDS011;51687;52.160;5.298;2022-07-17T03:12:36;1.45;;;1.05;;
43994;SDS011;51687;52.160;5.298;2022-07-17T03:15:04;1.92;;;1.00;;
43994;SDS011;51687;52.160;5.298;2022-07-17T03:17:31;2.58;;;0.95;;
43994;SDS011;51687;52.160;5.298;2022-07-17T03:19:58;1.27;;;0.80;;
43994;SDS011;51687;52.160;5.298;2022-07-17T03:22:25;2.08;;;1.00;;
43994;SDS011;51687;52.160;5.298;2022-07-17T03:24:52;2.03;;;1.00;;
43994;SDS011;51687;52.160;5.298;2022-07-17T03:27:19;0.95;;;0.82;;
43994;SDS011;51687;52.160;5.298;2022-07-17T03:29:46;2.90;;;1.17;;
43994;SDS011;51687;52.160;5.298;2022-07-17T03:32:13;3.00;;;1.58;;
43994;SDS011;51687;52.160;5.298;2022-07-17T03:34:40;1.10;;;0.80;;
43994;SDS011;51687;52.160;5.298;2022-07-17T03:37:07;1.98;;;0.90;;
43994;SDS011;51687;52.160;5.298;2022-07-17T03:39:34;2.65;;;1.15;;
43994;SDS011;51687;52.160;5.298;2022-07-17T03:42:01;3.53;;;1.00;;
43994;SDS011;51687;52.160;5.298;2022-07-17T03:44:28;3.30;;;0.90;;
43994;SDS011;51687;52.160;5.298;2022-07-17T03:46:56;1.90;;;1.00;;
43994;SDS011;51687;52.160;5.298;2022-07-17T03:49:23;1.23;;;0.85;;
43994;SDS011;51687;52.160;5.298;2022-07-17T03:51:50;1.92;;;1.02;;
43994;SDS011;51687;52.160;5.298;2022-07-17T03:54:18;1.95;;;0.93;;
43994;SDS011;51687;52.160;5.298;2022-07-17T03:56:49;2.40;;;0.73;;
43994;SDS011;51687;52.160;5.298;2022-07-17T03:59:17;1.20;;;0.80;;
43994;SDS011;51687;52.160;5.298;2022-07-17T04:01:44;3.65;;;1.13;;
43994;SDS011;51687;52.160;5.298;2022-07-17T04:04:11;2.65;;;0.75;;
43994;SDS011;51687;52.160;5.298;2022-07-17T04:06:38;4.60;;;0.90;;
43994;SDS011;51687;52.160;5.298;2022-07-17T04:09:05;2.40;;;1.13;;
43994;SDS011;51687;52.160;5.298;2022-07-17T04:11:31;2.45;;;1.17;;
43994;SDS011;51687;52.160;5.298;2022-07-17T04:13:58;1.35;;;0.75;;
43994;SDS011;51687;52.160;5.298;2022-07-17T04:16:25;1.25;;;0.70;;
43994;SDS011;51687;52.160;5.298;2022-07-17T04:18:52;3.00;;;1.20;;
43994;SDS011;51687;52.160;5.298;2022-07-17T04:21:19;2.95;;;0.90;;
43994;SDS011;51687;52.160;5.298;2022-07-17T04:23:46;1.85;;;0.80;;
43994;SDS011;51687;52.160;5.298;2022-07-17T04:26:13;1.33;;;0.63;;
43994;SDS011;51687;52.160;5.298;2022-07-17T04:28:40;1.23;;;0.63;;
43994;SDS011;51687;52.160;5.298;2022-07-17T04:31:09;3.80;;;1.00;;
43994;SDS011;51687;52.160;5.298;2022-07-17T04:33:36;1.90;;;0.82;;
43994;SDS011;51687;52.160;5.298;2022-07-17T04:36:04;2.88;;;1.00;;
43994;SDS011;51687;52.160;5.298;2022-07-17T04:38:31;2.00;;;0.90;;
43994;SDS011;51687;52.160;5.298;2022-07-17T04:40:58;2.83;;;0.80;;
43994;SDS011;51687;52.160;5.298;2022-07-17T04:43:25;2.10;;;0.98;;
43994;SDS011;51687;52.160;5.298;2022-07-17T04:45:51;2.05;;;0.98;;
43994;SDS011;51687;52.160;5.298;2022-07-17T04:48:18;3.08;;;0.85;;
43994;SDS011;51687;52.160;5.298;2022-07-17T04:50:51;2.25;;;0.80;;
43994;SDS011;51687;52.160;5.298;2022-07-17T04:53:18;3.38;;;1.00;;
43994;SDS011;51687;52.160;5.298;2022-07-17T04:55:49;2.08;;;0.80;;
43994;SDS011;51687;52.160;5.298;2022-07-17T04:58:16;2.05;;;0.90;;
43994;SDS011;51687;52.160;5.298;2022-07-17T05:00:45;1.65;;;0.80;;
43994;SDS011;51687;52.160;5.298;2022-07-17T05:03:11;2.55;;;0.82;;
43994;SDS011;51687;52.160;5.298;2022-07-17T05:05:39;2.70;;;1.10;;
43994;SDS011;51687;52.160;5.298;2022-07-17T05:08:06;1.40;;;0.68;;
43994;SDS011;51687;52.160;5.298;2022-07-17T05:10:33;2.47;;;0.93;;
43994;SDS011;51687;52.160;5.298;2022-07-17T05:13:00;0.88;;;0.75;;
43994;SDS011;51687;52.160;5.298;2022-07-17T05:15:27;1.92;;;0.80;;
43994;SDS011;51687;52.160;5.298;2022-07-17T05:17:54;2.47;;;0.85;;
43994;SDS011;51687;52.160;5.298;2022-07-17T05:20:21;1.42;;;0.80;;
43994;SDS011;51687;52.160;5.298;2022-07-17T05:22:50;2.08;;;0.80;;
43994;SDS011;51687;52.160;5.298;2022-07-17T05:25:17;2.63;;;0.70;;
43994;SDS011;51687;52.160;5.298;2022-07-17T05:27:47;3.08;;;1.13;;
43994;SDS011;51687;52.160;5.298;2022-07-17T05:30:14;2.20;;;0.98;;
43994;SDS011;51687;52.160;5.298;2022-07-17T05:32:41;3.10;;;0.80;;
43994;SDS011;51687;52.160;5.298;2022-07-17T05:35:07;2.38;;;0.90;;
43994;SDS011;51687;52.160;5.298;2022-07-17T05:37:34;3.65;;;1.10;;
43994;SDS011;51687;52.160;5.298;2022-07-17T05:40:01;7.18;;;1.10;;
43994;SDS011;51687;52.160;5.298;2022-07-17T05:42:29;4.35;;;1.60;;
43994;SDS011;51687;52.160;5.298;2022-07-17T05:45:01;5.75;;;1.17;;
43994;SDS011;51687;52.160;5.298;2022-07-17T05:47:28;3.00;;;1.05;;
43994;SDS011;51687;52.160;5.298;2022-07-17T05:49:55;2.95;;;1.00;;
43994;SDS011;51687;52.160;5.298;2022-07-17T05:52:22;7.63;;;1.23;;
43994;SDS011;51687;52.160;5.298;2022-07-17T05:54:52;4.35;;;1.23;;
43994;SDS011;51687;52.160;5.298;2022-07-17T05:57:19;2.28;;;1.00;;
43994;SDS011;51687;52.160;5.298;2022-07-17T05:59:46;4.90;;;1.08;;
43994;SDS011;51687;52.160;5.298;2022-07-17T06:02:12;4.95;;;0.80;;
43994;SDS011;51687;52.160;5.298;2022-07-17T06:04:39;4.25;;;1.50;;
43994;SDS011;51687;52.160;5.298;2022-07-17T06:07:06;2.30;;;1.10;;
43994;SDS011;51687;52.160;5.298;2022-07-17T06:09:33;4.40;;;1.30;;
43994;SDS011;51687;52.160;5.298;2022-07-17T06:12:00;3.92;;;1.38;;
43994;SDS011;51687;52.160;5.298;2022-07-17T06:14:27;4.63;;;1.15;;
43994;SDS011;51687;52.160;5.298;2022-07-17T06:16:56;3.22;;;0.93;;
43994;SDS011;51687;52.160;5.298;2022-07-17T06:19:24;4.18;;;1.10;;
43994;SDS011;51687;52.160;5.298;2022-07-17T06:21:51;2.85;;;1.10;;
43994;SDS011;51687;52.160;5.298;2022-07-17T06:24:17;7.03;;;1.25;;
43994;SDS011;51687;52.160;5.298;2022-07-17T06:26:44;3.72;;;1.10;;
43994;SDS011;51687;52.160;5.298;2022-07-17T06:29:11;4.18;;;1.33;;
43994;SDS011;51687;52.160;5.298;2022-07-17T06:31:38;3.80;;;1.17;;
43994;SDS011;51687;52.160;5.298;2022-07-17T06:34:05;5.90;;;1.63;;
43994;SDS011;51687;52.160;5.298;2022-07-17T06:36:31;2.80;;;1.23;;
43994;SDS011;51687;52.160;5.298;2022-07-17T06:38:58;6.53;;;1.20;;
43994;SDS011;51687;52.160;5.298;2022-07-17T06:41:25;6.40;;;1.55;;
43994;SDS011;51687;52.160;5.298;2022-07-17T06:43:52;4.82;;;1.77;;
43994;SDS011;51687;52.160;5.298;2022-07-17T06:46:22;3.42;;;1.17;;
43994;SDS011;51687;52.160;5.298;2022-07-17T06:48:52;3.60;;;1.08;;
43994;SDS011;51687;52.160;5.298;2022-07-17T06:51:19;4.70;;;1.20;;
43994;SDS011;51687;52.160;5.298;2022-07-17T06:53:46;3.75;;;0.90;;
43994;SDS011;51687;52.160;5.298;2022-07-17T06:56:12;5.72;;;1.58;;
43994;SDS011;51687;52.160;5.298;2022-07-17T06:58:39;4.22;;;0.82;;
43994;SDS011;51687;52.160;5.298;2022-07-17T07:01:06;4.35;;;1.10;;
43994;SDS011;51687;52.160;5.298;2022-07-17T07:03:33;2.95;;;0.73;;
43994;SDS011;51687;52.160;5.298;2022-07-17T07:06:00;4.45;;;1.20;;
43994;SDS011;51687;52.160;5.298;2022-07-17T07:08:27;3.65;;;1.10;;
43994;SDS011;51687;52.160;5.298;2022-07-17T07:10:54;6.35;;;1.40;;
43994;SDS011;51687;52.160;5.298;2022-07-17T07:13:21;7.03;;;1.10;;
43994;SDS011;51687;52.160;5.298;2022-07-17T07:15:50;4.13;;;1.10;;
43994;SDS011;51687;52.160;5.298;2022-07-17T07:18:17;3.97;;;0.70;;
43994;SDS011;51687;52.160;5.298;2022-07-17T07:20:44;4.07;;;0.95;;
43994;SDS011;51687;52.160;5.298;2022-07-17T07:23:11;3.97;;;1.02;;
43994;SDS011;51687;52.160;5.298;2022-07-17T07:25:38;4.40;;;0.80;;
43994;SDS011;51687;52.160;5.298;2022-07-17T07:28:05;9.45;;;2.38;;
43994;SDS011;51687;52.160;5.298;2022-07-17T07:30:31;3.47;;;0.90;;
43994;SDS011;51687;52.160;5.298;2022-07-17T07:32:59;2.28;;;0.90;;
43994;SDS011;51687;52.160;5.298;2022-07-17T07:35:25;7.70;;;2.05;;
43994;SDS011;51687;52.160;5.298;2022-07-17T07:37:52;7.38;;;1.40;;
43994;SDS011;51687;52.160;5.298;2022-07-17T07:40:19;4.82;;;1.20;;
43994;SDS011;51687;52.160;5.298;2022-07-17T07:42:47;3.90;;;0.90;;
43994;SDS011;51687;52.160;5.298;2022-07-17T07:45:24;2.28;;;0.95;;
43994;SDS011;51687;52.160;5.298;2022-07-17T07:47:51;4.78;;;1.00;;
43994;SDS011;51687;52.160;5.298;2022-07-17T07:50:22;3.30;;;0.93;;
43994;SDS011;51687;52.160;5.298;2022-07-17T07:52:51;3.90;;;0.77;;
43994;SDS011;51687;52.160;5.298;2022-07-17T07:55:19;3.38;;;1.10;;
43994;SDS011;51687;52.160;5.298;2022-07-17T07:57:48;2.55;;;1.00;;
43994;SDS011;51687;52.160;5.298;2022-07-17T08:00:16;3.88;;;1.00;;
43994;SDS011;51687;52.160;5.298;2022-07-17T08:02:43;6.93;;;1.33;;
43994;SDS011;51687;52.160;5.298;2022-07-17T08:05:10;3.05;;;0.70;;
43994;SDS011;51687;52.160;5.298;2022-07-17T08:07:36;5.10;;;1.23;;
43994;SDS011;51687;52.160;5.298;2022-07-17T08:10:04;3.13;;;1.00;;
43994;SDS011;51687;52.160;5.298;2022-07-17T08:12:31;3.15;;;0.93;;
43994;SDS011;51687;52.160;5.298;2022-07-17T08:15:11;6.13;;;0.93;;
43994;SDS011;51687;52.160;5.298;2022-07-17T08:17:40;2.75;;;1.38;;
43994;SDS011;51687;52.160;5.298;2022-07-17T08:20:07;2.85;;;0.80;;
43994;SDS011;51687;52.160;5.298;2022-07-17T08:22:40;6.53;;;0.85;;
43994;SDS011;51687;52.160;5.298;2022-07-17T08:25:28;3.40;;;1.00;;
43994;SDS011;51687;52.160;5.298;2022-07-17T08:27:56;5.15;;;1.00;;
43994;SDS011;51687;52.160;5.298;2022-07-17T08:30:22;3.70;;;0.90;;
43994;SDS011;51687;52.160;5.298;2022-07-17T08:32:49;6.07;;;1.15;;
43994;SDS011;51687;52.160;5.298;2022-07-17T08:37:50;5.25;;;1.63;;
43994;SDS011;51687;52.160;5.298;2022-07-17T08:42:53;3.35;;;1.25;;
43994;SDS011;51687;52.160;5.298;2022-07-17T08:45:21;4.28;;;1.02;;
43994;SDS011;51687;52.160;5.298;2022-07-17T08:47:50;3.13;;;0.80;;
43994;SDS011;51687;52.160;5.298;2022-07-17T08:50:23;8.27;;;0.90;;
43994;SDS011;51687;52.160;5.298;2022-07-17T08:52:55;2.13;;;0.80;;
43994;SDS011;51687;52.160;5.298;2022-07-17T08:55:22;4.55;;;1.00;;
43994;SDS011;51687;52.160;5.298;2022-07-17T08:57:52;4.43;;;0.82;;
43994;SDS011;51687;52.160;5.298;2022-07-17T09:00:20;2.42;;;1.00;;
43994;SDS011;51687;52.160;5.298;2022-07-17T09:02:52;3.25;;;0.90;;
43994;SDS011;51687;52.160;5.298;2022-07-17T09:05:25;3.33;;;1.10;;
43994;SDS011;51687;52.160;5.298;2022-07-17T09:07:54;4.72;;;0.77;;
43994;SDS011;51687;52.160;5.298;2022-07-17T09:10:31;3.50;;;0.93;;
43994;SDS011;51687;52.160;5.298;2022-07-17T09:12:59;1.00;;;0.68;;
43994;SDS011;51687;52.160;5.298;2022-07-17T09:15:26;2.72;;;0.85;;
43994;SDS011;51687;52.160;5.298;2022-07-17T09:17:54;3.33;;;1.00;;
43994;SDS011;51687;52.160;5.298;2022-07-17T09:22:56;2.70;;;1.00;;
43994;SDS011;51687;52.160;5.298;2022-07-17T09:25:40;2.40;;;0.82;;
43994;SDS011;51687;52.160;5.298;2022-07-17T09:28:13;5.28;;;1.13;;
43994;SDS011;51687;52.160;5.298;2022-07-17T09:30:43;2.40;;;0.98;;
43994;SDS011;51687;52.160;5.298;2022-07-17T09:33:18;4.18;;;1.08;;
43994;SDS011;51687;52.160;5.298;2022-07-17T09:35:50;4.78;;;1.00;;
43994;SDS011;51687;52.160;5.298;2022-07-17T09:38:32;4.40;;;1.38;;
43994;SDS011;51687;52.160;5.298;2022-07-17T09:41:15;3.15;;;1.30;;
43994;SDS011;51687;52.160;5.298;2022-07-17T09:43:50;3.35;;;1.00;;
43994;SDS011;51687;52.160;5.298;2022-07-17T09:46:34;3.75;;;1.10;;
43994;SDS011;51687;52.160;5.298;2022-07-17T09:49:04;2.13;;;0.90;;
43994;SDS011;51687;52.160;5.298;2022-07-17T09:51:35;2.88;;;0.98;;
43994;SDS011;51687;52.160;5.298;2022-07-17T09:54:08;2.10;;;1.17;;
43994;SDS011;51687;52.160;5.298;2022-07-17T09:56:37;2.22;;;1.00;;
43994;SDS011;51687;52.160;5.298;2022-07-17T10:01:34;4.00;;;1.23;;
43994;SDS011;51687;52.160;5.298;2022-07-17T10:04:02;4.03;;;1.02;;
43994;SDS011;51687;52.160;5.298;2022-07-17T10:06:30;5.43;;;1.10;;
43994;SDS011;51687;52.160;5.298;2022-07-17T10:08:58;3.25;;;1.08;;
43994;SDS011;51687;52.160;5.298;2022-07-17T10:11:27;2.90;;;1.20;;
43994;SDS011;51687;52.160;5.298;2022-07-17T10:13:56;2.33;;;0.98;;
43994;SDS011;51687;52.160;5.298;2022-07-17T10:16:29;1.90;;;1.13;;
43994;SDS011;51687;52.160;5.298;2022-07-17T10:18:58;2.28;;;0.90;;
43994;SDS011;51687;52.160;5.298;2022-07-17T10:21:29;2.67;;;1.10;;
43994;SDS011;51687;52.160;5.298;2022-07-17T10:28:57;2.35;;;0.88;;
43994;SDS011;51687;52.160;5.298;2022-07-17T10:31:25;2.28;;;1.00;;
43994;SDS011;51687;52.160;5.298;2022-07-17T10:33:54;2.63;;;1.00;;
43994;SDS011;51687;52.160;5.298;2022-07-17T10:36:36;3.65;;;1.08;;
43994;SDS011;51687;52.160;5.298;2022-07-17T10:39:17;3.38;;;1.20;;
43994;SDS011;51687;52.160;5.298;2022-07-17T10:41:56;2.53;;;0.95;;
43994;SDS011;51687;52.160;5.298;2022-07-17T10:44:29;3.33;;;1.33;;
43994;SDS011;51687;52.160;5.298;2022-07-17T10:46:58;3.05;;;1.15;;
43994;SDS011;51687;52.160;5.298;2022-07-17T10:49:25;2.10;;;0.90;;
43994;SDS011;51687;52.160;5.298;2022-07-17T10:51:55;3.35;;;0.95;;
43994;SDS011;51687;52.160;5.298;2022-07-17T10:54:31;2.47;;;1.20;;
43994;SDS011;51687;52.160;5.298;2022-07-17T10:57:01;1.27;;;1.17;;
43994;SDS011;51687;52.160;5.298;2022-07-17T10:59:29;2.67;;;1.07;;
43994;SDS011;51687;52.160;5.298;2022-07-17T11:01:56;4.28;;;1.48;;
43994;SDS011;51687;52.160;5.298;2022-07-17T11:04:23;3.17;;;1.45;;
43994;SDS011;51687;52.160;5.298;2022-07-17T11:06:50;1.65;;;0.95;;
43994;SDS011;51687;52.160;5.298;2022-07-17T11:09:18;2.15;;;1.10;;
43994;SDS011;51687;52.160;5.298;2022-07-17T11:11:45;1.92;;;1.02;;
43994;SDS011;51687;52.160;5.298;2022-07-17T11:16:48;4.57;;;1.45;;
43994;SDS011;51687;52.160;5.298;2022-07-17T11:19:22;2.90;;;1.25;;
43994;SDS011;51687;52.160;5.298;2022-07-17T11:22:01;2.10;;;1.20;;
43994;SDS011;51687;52.160;5.298;2022-07-17T11:27:06;2.45;;;1.50;;
43994;SDS011;51687;52.160;5.298;2022-07-17T11:29:38;2.92;;;1.52;;
43994;SDS011;51687;52.160;5.298;2022-07-17T11:32:05;2.28;;;1.50;;
43994;SDS011;51687;52.160;5.298;2022-07-17T11:34:32;2.15;;;1.30;;
43994;SDS011;51687;52.160;5.298;2022-07-17T11:37:00;1.42;;;1.30;;
43994;SDS011;51687;52.160;5.298;2022-07-17T11:39:45;2.92;;;1.40;;
43994;SDS011;51687;52.160;5.298;2022-07-17T11:42:14;2.08;;;1.75;;
43994;SDS011;51687;52.160;5.298;2022-07-17T11:44:43;1.85;;;1.27;;
43994;SDS011;51687;52.160;5.298;2022-07-17T11:47:11;2.90;;;1.63;;
43994;SDS011;51687;52.160;5.298;2022-07-17T11:49:45;2.70;;;1.45;;
43994;SDS011;51687;52.160;5.298;2022-07-17T11:52:16;3.25;;;1.70;;
43994;SDS011;51687;52.160;5.298;2022-07-17T11:54:48;1.98;;;1.40;;
43994;SDS011;51687;52.160;5.298;2022-07-17T11:57:18;3.05;;;1.35;;
43994;SDS011;51687;52.160;5.298;2022-07-17T12:02:19;3.20;;;1.33;;
43994;SDS011;51687;52.160;5.298;2022-07-17T12:04:48;1.45;;;1.20;;
43994;SDS011;51687;52.160;5.298;2022-07-17T12:07:17;1.58;;;1.40;;
43994;SDS011;51687;52.160;5.298;2022-07-17T12:09:43;2.53;;;1.38;;
43994;SDS011;51687;52.160;5.298;2022-07-17T12:12:20;1.95;;;1.55;;
43994;SDS011;51687;52.160;5.298;2022-07-17T12:14:52;2.53;;;1.27;;
43994;SDS011;51687;52.160;5.298;2022-07-17T12:17:36;2.63;;;1.48;;
43994;SDS011;51687;52.160;5.298;2022-07-17T12:25:24;2.20;;;1.63;;
43994;SDS011;51687;52.160;5.298;2022-07-17T12:27:52;2.63;;;1.30;;
43994;SDS011;51687;52.160;5.298;2022-07-17T12:30:19;1.98;;;1.45;;
43994;SDS011;51687;52.160;5.298;2022-07-17T12:32:46;2.38;;;1.65;;
43994;SDS011;51687;52.160;5.298;2022-07-17T12:35:14;2.42;;;1.45;;
43994;SDS011;51687;52.160;5.298;2022-07-17T12:37:42;1.92;;;1.73;;
43994;SDS011;51687;52.160;5.298;2022-07-17T12:40:09;3.80;;;1.52;;
43994;SDS011;51687;52.160;5.298;2022-07-17T12:42:40;2.60;;;1.70;;
43994;SDS011;51687;52.160;5.298;2022-07-17T12:45:08;2.58;;;1.85;;
43994;SDS011;51687;52.160;5.298;2022-07-17T12:47:36;1.95;;;1.60;;
43994;SDS011;51687;52.160;5.298;2022-07-17T12:50:02;2.25;;;1.60;;
43994;SDS011;51687;52.160;5.298;2022-07-17T12:52:30;2.72;;;2.08;;
43994;SDS011;51687;52.160;5.298;2022-07-17T12:54:57;2.13;;;1.92;;
43994;SDS011;51687;52.160;5.298;2022-07-17T12:59:52;4.07;;;2.90;;
43994;SDS011;51687;52.160;5.298;2022-07-17T13:02:19;2.63;;;2.20;;
43994;SDS011;51687;52.160;5.298;2022-07-17T13:04:46;3.42;;;1.90;;
43994;SDS011;51687;52.160;5.298;2022-07-17T13:07:13;2.95;;;2.00;;
43994;SDS011;51687;52.160;5.298;2022-07-17T13:09:39;2.67;;;2.13;;
43994;SDS011;51687;52.160;5.298;2022-07-17T13:12:06;2.97;;;2.53;;
43994;SDS011;51687;52.160;5.298;2022-07-17T13:14:33;3.85;;;3.47;;
43994;SDS011;51687;52.160;5.298;2022-07-17T13:17:00;3.35;;;3.05;;
43994;SDS011;51687;52.160;5.298;2022-07-17T13:19:27;3.28;;;2.85;;
43994;SDS011;51687;52.160;5.298;2022-07-17T13:21:54;3.60;;;3.20;;
43994;SDS011;51687;52.160;5.298;2022-07-17T13:24:21;3.03;;;2.83;;
43994;SDS011;51687;52.160;5.298;2022-07-17T13:26:49;4.00;;;3.58;;
43994;SDS011;51687;52.160;5.298;2022-07-17T13:29:16;3.55;;;3.25;;
43994;SDS011;51687;52.160;5.298;2022-07-17T13:31:43;3.10;;;2.80;;
43994;SDS011;51687;52.160;5.298;2022-07-17T13:34:11;3.03;;;2.45;;
43994;SDS011;51687;52.160;5.298;2022-07-17T13:36:37;2.65;;;2.42;;
43994;SDS011;51687;52.160;5.298;2022-07-17T13:39:04;3.70;;;2.70;;
43994;SDS011;51687;52.160;5.298;2022-07-17T13:41:31;3.05;;;2.70;;
43994;SDS011;51687;52.160;5.298;2022-07-17T13:43:58;3.40;;;3.05;;
43994;SDS011;51687;52.160;5.298;2022-07-17T13:46:33;4.20;;;2.67;;
43994;SDS011;51687;52.160;5.298;2022-07-17T13:49:00;2.45;;;2.25;;
43994;SDS011;51687;52.160;5.298;2022-07-17T13:51:27;2.50;;;2.22;;
43994;SDS011;51687;52.160;5.298;2022-07-17T13:56:23;3.00;;;2.70;;
43994;SDS011;51687;52.160;5.298;2022-07-17T13:58:52;3.15;;;2.47;;
43994;SDS011;51687;52.160;5.298;2022-07-17T14:01:19;3.80;;;2.83;;
43994;SDS011;51687;52.160;5.298;2022-07-17T14:03:48;4.25;;;2.90;;
43994;SDS011;51687;52.160;5.298;2022-07-17T14:06:15;3.20;;;2.90;;
43994;SDS011;51687;52.160;5.298;2022-07-17T14:08:43;3.40;;;3.03;;
43994;SDS011;51687;52.160;5.298;2022-07-17T14:11:11;3.97;;;3.63;;
43994;SDS011;51687;52.160;5.298;2022-07-17T14:13:38;3.58;;;3.28;;
43994;SDS011;51687;52.160;5.298;2022-07-17T14:16:11;3.40;;;3.10;;
43994;SDS011;51687;52.160;5.298;2022-07-17T14:18:38;3.45;;;3.15;;
43994;SDS011;51687;52.160;5.298;2022-07-17T14:21:28;4.13;;;3.72;;
43994;SDS011;51687;52.160;5.298;2022-07-17T14:23:56;4.25;;;3.47;;
43994;SDS011;51687;52.160;5.298;2022-07-17T14:26:27;3.30;;;3.10;;
43994;SDS011;51687;52.160;5.298;2022-07-17T14:28:56;3.72;;;3.42;;
43994;SDS011;51687;52.160;5.298;2022-07-17T14:31:36;3.30;;;3.00;;
43994;SDS011;51687;52.160;5.298;2022-07-17T14:34:09;3.63;;;3.33;;
43994;SDS011;51687;52.160;5.298;2022-07-17T14:36:35;8.75;;;7.95;;
43994;SDS011;51687;52.160;5.298;2022-07-17T14:39:02;4.05;;;3.30;;
43994;SDS011;51687;52.160;5.298;2022-07-17T14:41:29;3.40;;;3.10;;
43994;SDS011;51687;52.160;5.298;2022-07-17T14:43:56;4.43;;;3.03;;
43994;SDS011;51687;52.160;5.298;2022-07-17T14:46:23;4.13;;;3.72;;
43994;SDS011;51687;52.160;5.298;2022-07-17T14:48:51;4.07;;;3.67;;
43994;SDS011;51687;52.160;5.298;2022-07-17T14:51:18;4.63;;;3.58;;
43994;SDS011;51687;52.160;5.298;2022-07-17T14:53:46;4.50;;;3.95;;
43994;SDS011;51687;52.160;5.298;2022-07-17T14:56:12;4.40;;;4.05;;
43994;SDS011;51687;52.160;5.298;2022-07-17T14:58:39;3.90;;;3.60;;
43994;SDS011;51687;52.160;5.298;2022-07-17T15:01:11;4.93;;;4.53;;
43994;SDS011;51687;52.160;5.298;2022-07-17T15:03:41;5.68;;;4.75;;
43994;SDS011;51687;52.160;5.298;2022-07-17T15:06:08;4.70;;;4.30;;
43994;SDS011;51687;52.160;5.298;2022-07-17T15:08:41;5.60;;;4.10;;
43994;SDS011;51687;52.160;5.298;2022-07-17T15:11:12;7.70;;;4.35;;
43994;SDS011;51687;52.160;5.298;2022-07-17T15:13:43;5.07;;;4.65;;
43994;SDS011;51687;52.160;5.298;2022-07-17T15:16:12;5.43;;;4.95;;
43994;SDS011;51687;52.160;5.298;2022-07-17T15:18:40;5.75;;;4.93;;
43994;SDS011;51687;52.160;5.298;2022-07-17T15:21:15;5.43;;;5.03;;
43994;SDS011;51687;52.160;5.298;2022-07-17T15:24:04;6.95;;;6.32;;
43994;SDS011;51687;52.160;5.298;2022-07-17T15:26:42;5.63;;;5.18;;
43994;SDS011;51687;52.160;5.298;2022-07-17T15:29:14;5.72;;;5.22;;